• Join FlightAware (Why Join?)
  • Login
  • US Flag 
11:25AM EDT


 

Airport Tracker/Info


-or-


 

Live Flight TrackerFlight Track Log ✈ UCA3599 ✈ 05-Sep-2013 ✈ KBGM - KIAD

Flight Track Log - Related Links

Times and Time Zones

All times are in EDT time to prevent confusion due to time zone crossing. See the UCA3599 flight status page for this flight to view local times or setup timezone preferences in your user account.

Time Position Orientation Groundspeed Altitude Reporting Facility
EDT Latitude Longitude Course Direction KTS MPH feet Rate Location/Type
06:06AM 42.2281 -76.0161 218° Southwest 122 140 3,100  Level New York Center
06:07AM 42.1931 -76.0525 218° Southwest 181 208 4,200 1,080 Climbing New York Center
06:08AM 42.1458 -76.0850 207° Southwest 195 224 5,300 1,200 Climbing New York Center
06:09AM 42.1006 -76.1233 212° Southwest 201 231 6,600 1,140 Climbing New York Center
06:10AM 42.0569 -76.1644 215° Southwest 201 231 7,600 960 Climbing New York Center
06:11AM 42.0158 -76.2003 213° Southwest 201 231 8,600 1,080 Climbing New York Center
06:12AM 41.9661 -76.2408 211° Southwest 201 231 9,800 1,020 Climbing New York Center
06:13AM 41.9206 -76.2817 214° Southwest 201 231 10,700 900 Climbing New York Center
06:14AM 41.8728 -76.3222 212° Southwest 201 231 11,600 900 Climbing New York Center
06:15AM 41.8292 -76.3603 213° Southwest 206 237 12,600 1,080 Climbing New York Center
06:16AM 41.7772 -76.4061 213° Southwest 206 237 13,800 1,080 Climbing New York Center
06:17AM 41.7253 -76.4489 212° Southwest 211 243 14,800 1,020 Climbing New York Center
06:18AM 41.6775 -76.4892 212° Southwest 211 243 15,900 600 Climbing New York Center
06:19AM 41.6297 -76.5294 212° Southwest 221 254 16,000  Climbing New York Center
06:20AM 41.5711 -76.5772 211° Southwest 236 272 16,000  Level New York Center
06:21AM 41.5036 -76.6350 213° Southwest 261 300 16,000  Level New York Center
06:22AM 41.4428 -76.6878 213° Southwest 268 308 16,000  Level New York Center
06:23AM 41.3794 -76.7431 213° Southwest 268 308 16,000  Level New York Center
06:24AM 41.3128 -76.7869 206° Southwest 268 308 16,000  Level New York Center
06:25AM 41.2414 -76.7972 186° South 273 314 16,000  Level New York Center
06:26AM 41.1636 -76.8122 188° South 280 322 16,000  Level New York Center
06:27AM 41.0878 -76.8275 189° South 280 322 16,000  Level New York Center
06:28AM 41.0142 -76.8403 187° South 280 322 16,000  Level New York Center
06:29AM 40.9278 -76.8600 190° South 280 322 16,000  Level New York Center
06:30AM 40.8625 -76.8733 189° South 275 316 16,000  Level New York Center
06:31AM 40.7761 -76.8878 187° South 280 322 16,000  Level New York Center
06:32AM 40.7125 -76.9094 194° South 280 322 16,000  Level New York Center
06:33AM 40.6319 -76.9350 194° South 280 322 16,000  Level New York Center
06:34AM 40.5664 -76.9564 194° South 275 316 16,000  Level New York Center
06:35AM 40.4836 -76.9819 193° South 275 316 16,000  Level New York Center
06:36AM 40.4203 -77.0006 193° South 275 316 16,000  Level New York Center
06:37AM 40.3397 -77.0261 194° South 275 316 16,000  Level New York Center
06:38AM 40.2717 -77.0472 193° South 275 316 16,000 -360 Level New York Center
06:39AM 40.1911 -77.0725 193° South 275 316 15,300 -1,260 Descending New York Center
06:41AM 40.0667 -77.1000 190° South 301 346 12,900 -1,560 Descending Potomac TRACON
06:42AM 39.9833 -77.1333 197° South 291 335 11,400 -1,620 Descending Potomac TRACON
06:43AM 39.9000 -77.1667 197° South 272 313 9,500 -1,680 Descending Potomac TRACON
06:44AM 39.8500 -77.2000 207° Southwest 261 300 8,100 -840 Descending Potomac TRACON
06:44AM 39.8000 -77.2333 207° Southwest 240 276 8,000 -660 Descending Potomac TRACON
06:45AM 39.7333 -77.2667 201° Southwest 265 305 7,000 -540 Descending Potomac TRACON
06:46AM 39.6667 -77.3167 210° Southwest 256 295 7,000  Level Potomac TRACON
06:47AM 39.6000 -77.3500 201° Southwest 254 292 7,000 -300 Level Potomac TRACON
06:48AM 39.5500 -77.4167 226° Southwest 248 285 6,500 -600 Descending Potomac TRACON
06:49AM 39.5167 -77.4667 229° Southwest 259 298 6,000 -660 Descending Potomac TRACON
06:50AM 39.4500 -77.4667 180° South 272 313 5,400 -840 Descending Potomac TRACON
06:51AM 39.3667 -77.4333 163° South 282 325 4,300 -720 Descending Potomac TRACON
06:52AM 39.3000 -77.4333 180° South 272 313 4,000 -660 Descending Potomac TRACON
06:53AM 39.2333 -77.4333 180° South 239 275 3,100 -540 Descending Potomac TRACON
06:54AM 39.1833 -77.4333 180° South 214 246 3,000 -60 Descending Potomac TRACON
06:55AM 39.1333 -77.4333 180° South 195 224 3,000 -180 Level Potomac TRACON
06:56AM 39.0833 -77.4333 180° South 202 232 2,700 -840 Descending Potomac TRACON
06:57AM 39.0167 -77.4333 180° South 189 217 1,500 -1,020 Descending Potomac TRACON
06:58AM 38.9833 -77.4333 180° South 149 171 800 -780 Descending Potomac TRACON